createdAt,value
2022-08-11T00:02:21.334Z,69.00
2022-08-11T00:04:47.793Z,69.10
2022-08-11T00:07:14.232Z,69.20
2022-08-11T00:09:40.675Z,69.00
2022-08-11T00:12:07.138Z,69.00
2022-08-11T00:14:37.336Z,69.00
2022-08-11T00:17:04.419Z,69.00
2022-08-11T00:20:13.127Z,69.00
2022-08-11T00:22:17.413Z,69.00
2022-08-11T00:24:53.465Z,69.00
2022-08-11T00:27:22.628Z,68.90
2022-08-11T00:29:51.657Z,68.90
2022-08-11T00:32:18.462Z,69.00
2022-08-11T00:34:44.888Z,69.00
2022-08-11T00:37:11.383Z,69.10
2022-08-11T00:39:37.866Z,69.00
2022-08-11T00:42:04.393Z,69.00
2022-08-11T00:44:30.812Z,69.00
2022-08-11T00:46:57.266Z,69.00
2022-08-11T00:49:23.707Z,69.50
2022-08-11T00:52:02.166Z,69.10
2022-08-11T00:54:32.994Z,69.00
2022-08-11T00:56:59.737Z,68.90
2022-08-11T00:59:35.357Z,68.80
2022-08-11T01:02:02.356Z,69.00
2022-08-11T01:04:28.795Z,68.90
2022-08-11T01:06:55.252Z,69.10
2022-08-11T01:09:22.803Z,69.20
2022-08-11T01:11:55.775Z,69.20
2022-08-11T01:14:33.867Z,69.00
2022-08-11T01:17:01.276Z,69.20
2022-08-11T01:19:27.715Z,69.10
2022-08-11T01:21:54.206Z,69.00
2022-08-11T01:24:22.730Z,69.10
2022-08-11T01:26:49.188Z,69.30
2022-08-11T01:29:15.621Z,69.20
2022-08-11T01:31:42.086Z,69.00
2022-08-11T01:34:08.548Z,67.90
2022-08-11T01:36:35.180Z,69.40
2022-08-11T01:39:01.622Z,69.10
2022-08-11T01:41:28.073Z,70.30
2022-08-11T01:43:54.520Z,69.00
2022-08-11T01:46:20.977Z,69.10
2022-08-11T01:48:47.418Z,69.10
2022-08-11T01:51:16.727Z,68.90
2022-08-11T01:53:43.808Z,69.10
2022-08-11T01:56:10.278Z,68.90
2022-08-11T01:58:43.682Z,69.20
2022-08-11T02:01:10.835Z,69.10
2022-08-11T02:03:37.343Z,68.90
2022-08-11T02:06:03.807Z,69.30
2022-08-11T02:08:33.175Z,69.10
2022-08-11T02:11:00.216Z,69.80
2022-08-11T02:13:35.375Z,69.00
2022-08-11T02:16:03.031Z,68.90
2022-08-11T02:18:29.478Z,69.10
2022-08-11T02:20:55.911Z,69.00
2022-08-11T02:24:06.155Z,69.10
2022-08-11T02:26:08.819Z,69.10
2022-08-11T02:28:40.214Z,68.90
2022-08-11T02:31:22.547Z,69.10
2022-08-11T02:33:59.383Z,69.10
2022-08-11T02:36:25.835Z,69.00
2022-08-11T02:38:52.316Z,69.10
2022-08-11T02:41:18.785Z,69.30
2022-08-11T02:43:48.058Z,70.20
2022-08-11T02:46:18.553Z,68.30
2022-08-11T02:48:46.538Z,69.50
2022-08-11T02:51:13.202Z,69.10
2022-08-11T02:53:39.682Z,69.30
2022-08-11T02:56:06.242Z,69.50
2022-08-11T02:58:32.691Z,69.80
2022-08-11T03:00:59.128Z,69.50
2022-08-11T03:03:25.569Z,68.80
2022-08-11T03:05:52.684Z,69.50
2022-08-11T03:08:20.259Z,69.30
2022-08-11T03:10:46.695Z,69.20
2022-08-11T03:13:14.189Z,70.20
2022-08-11T03:15:41.948Z,69.40
2022-08-11T03:18:11.109Z,69.50
2022-08-11T03:20:37.906Z,69.20
2022-08-11T03:23:04.911Z,69.20
2022-08-11T03:25:46.671Z,69.20
2022-08-11T03:28:13.149Z,69.00
2022-08-11T03:30:39.582Z,69.20
2022-08-11T03:33:06.023Z,69.10
2022-08-11T03:35:32.466Z,68.90
2022-08-11T03:37:58.938Z,68.90
2022-08-11T03:40:25.401Z,68.50
2022-08-11T03:42:51.897Z,69.20
2022-08-11T03:45:18.347Z,69.70
2022-08-11T03:47:55.200Z,68.90
2022-08-11T03:50:22.221Z,69.00
2022-08-11T03:52:48.678Z,69.00
2022-08-11T03:55:15.124Z,69.10
2022-08-11T03:57:41.565Z,68.90
2022-08-11T04:00:08.034Z,69.00
2022-08-11T04:02:34.504Z,69.00
2022-08-11T04:05:00.935Z,69.00
2022-08-11T04:07:27.434Z,69.00
2022-08-11T04:09:53.918Z,69.00
2022-08-11T04:12:45.618Z,69.30
2022-08-11T04:15:06.831Z,69.00
2022-08-11T04:17:33.299Z,68.90
2022-08-11T04:19:59.762Z,69.30
2022-08-11T04:22:26.213Z,68.90
2022-08-11T04:24:52.668Z,69.50
2022-08-11T04:27:19.329Z,69.00
2022-08-11T04:30:03.345Z,68.90
2022-08-11T04:32:31.782Z,69.30
2022-08-11T04:34:58.234Z,69.30
2022-08-11T04:37:24.702Z,69.00
2022-08-11T04:39:51.216Z,69.00
2022-08-11T04:42:17.753Z,69.00
2022-08-11T04:44:44.214Z,68.90
2022-08-11T04:47:10.646Z,69.10
2022-08-11T04:49:37.090Z,69.60
2022-08-11T04:52:03.533Z,69.00
2022-08-11T04:54:29.994Z,69.00
2022-08-11T04:56:56.417Z,69.10
2022-08-11T04:59:22.912Z,68.90
2022-08-11T05:01:49.436Z,69.00
2022-08-11T05:04:15.924Z,68.90
2022-08-11T05:06:42.416Z,68.90
2022-08-11T05:09:08.916Z,69.40
2022-08-11T05:11:35.364Z,69.50
2022-08-11T05:14:01.891Z,69.60
2022-08-11T05:16:28.357Z,69.30
2022-08-11T05:18:54.833Z,71.30
2022-08-11T05:21:21.303Z,69.00
2022-08-11T05:23:47.752Z,68.90
2022-08-11T05:26:47.719Z,69.10
2022-08-11T05:29:00.759Z,69.10
2022-08-11T05:31:46.131Z,69.40
2022-08-11T05:34:12.690Z,69.00
2022-08-11T05:36:39.121Z,69.40
2022-08-11T05:39:05.547Z,68.90
2022-08-11T05:41:32.118Z,69.00
2022-08-11T05:44:20.034Z,69.00
2022-08-11T05:46:45.254Z,68.90
2022-08-11T05:49:11.705Z,69.10
2022-08-11T05:51:38.145Z,68.90
2022-08-11T05:54:04.586Z,69.00
2022-08-11T05:56:51.030Z,68.90
2022-08-11T05:59:17.577Z,69.00
2022-08-11T06:01:44.088Z,69.00
2022-08-11T06:04:10.593Z,69.00
2022-08-11T06:06:39.205Z,69.20
2022-08-11T06:09:07.469Z,69.50
2022-08-11T06:11:43.591Z,69.00
2022-08-11T06:14:10.953Z,69.10
2022-08-11T06:16:37.398Z,69.70
2022-08-11T06:19:03.866Z,69.70
2022-08-11T06:21:30.352Z,69.00
2022-08-11T06:23:56.820Z,69.00
2022-08-11T06:26:23.352Z,69.10
2022-08-11T06:28:49.796Z,68.90
2022-08-11T06:31:16.323Z,69.10
2022-08-11T06:33:42.781Z,69.10
2022-08-11T06:36:09.317Z,69.10
2022-08-11T06:38:35.752Z,69.90
2022-08-11T06:41:02.202Z,69.00
2022-08-11T06:43:28.655Z,69.00
2022-08-11T06:45:55.180Z,69.00
2022-08-11T06:48:21.657Z,69.00
2022-08-11T06:50:48.174Z,69.10
2022-08-11T06:53:14.640Z,69.10
2022-08-11T06:55:56.881Z,69.50
2022-08-11T06:58:25.206Z,69.50
2022-08-11T07:00:51.663Z,69.50
2022-08-11T07:03:18.142Z,69.60
2022-08-11T07:05:44.608Z,69.50
2022-08-11T07:08:34.469Z,69.00
2022-08-11T07:10:57.584Z,69.00
2022-08-11T07:13:44.359Z,69.70
2022-08-11T07:16:13.914Z,69.30
2022-08-11T07:18:40.670Z,68.90
2022-08-11T07:21:59.933Z,69.00
2022-08-11T07:23:53.572Z,68.80
2022-08-11T07:26:20.059Z,69.20
2022-08-11T07:28:46.515Z,69.10
2022-08-11T07:31:13.004Z,69.60
2022-08-11T07:34:07.985Z,69.70
2022-08-11T07:36:28.287Z,68.10
2022-08-11T07:38:55.553Z,68.90
2022-08-11T07:41:22.034Z,68.60
2022-08-11T07:43:48.493Z,68.70
2022-08-11T07:46:14.946Z,68.80
2022-08-11T07:48:41.397Z,68.70
2022-08-11T07:51:08.044Z,69.00
2022-08-11T07:53:34.511Z,68.80
2022-08-11T07:56:21.895Z,69.50
2022-08-11T07:59:08.439Z,69.40
2022-08-11T08:01:35.626Z,69.30
2022-08-11T08:04:02.079Z,69.60
2022-08-11T08:06:36.141Z,69.10
2022-08-11T08:09:03.148Z,69.20
2022-08-11T08:11:29.611Z,69.10
2022-08-11T08:13:56.049Z,69.00
2022-08-11T08:16:22.509Z,69.70
2022-08-11T08:18:48.995Z,68.90
2022-08-11T08:21:15.474Z,69.00
2022-08-11T08:23:41.924Z,69.00
2022-08-11T08:26:16.656Z,69.00
2022-08-11T08:28:43.476Z,69.10
2022-08-11T08:31:09.914Z,69.00
2022-08-11T08:33:36.371Z,69.20
2022-08-11T08:36:02.867Z,69.10
2022-08-11T08:38:29.371Z,69.00
2022-08-11T08:40:57.383Z,69.50
2022-08-11T08:43:23.879Z,69.10
2022-08-11T08:45:50.341Z,69.70
2022-08-11T08:48:16.759Z,69.40
2022-08-11T08:50:43.229Z,69.00
2022-08-11T08:53:13.502Z,69.20
2022-08-11T08:55:44.977Z,69.50
2022-08-11T08:58:11.944Z,69.40
2022-08-11T09:00:38.435Z,69.00
2022-08-11T09:03:22.812Z,69.40
2022-08-11T09:05:51.339Z,68.90
2022-08-11T09:08:17.804Z,69.10
2022-08-11T09:10:44.251Z,69.40
2022-08-11T09:13:10.713Z,69.00
2022-08-11T09:15:37.163Z,69.50
2022-08-11T09:18:03.697Z,69.20
2022-08-11T09:20:30.235Z,69.40
2022-08-11T09:23:29.571Z,69.60
2022-08-11T09:25:43.099Z,68.50
2022-08-11T09:28:09.555Z,69.40
2022-08-11T09:30:36.010Z,68.70
2022-08-11T09:33:02.430Z,68.80
2022-08-11T09:35:28.892Z,68.80
2022-08-11T09:37:56.579Z,68.70
2022-08-11T09:40:23.222Z,68.60
2022-08-11T09:42:53.753Z,68.70
2022-08-11T09:45:20.206Z,68.90
2022-08-11T09:47:46.651Z,68.90
2022-08-11T09:50:13.100Z,69.80
2022-08-11T09:52:52.148Z,69.00
2022-08-11T09:55:26.045Z,68.50
2022-08-11T09:57:52.498Z,68.70
2022-08-11T10:00:18.991Z,68.70
2022-08-11T10:02:45.486Z,68.90
2022-08-11T10:05:11.942Z,68.90
2022-08-11T10:07:38.446Z,69.00
2022-08-11T10:10:04.992Z,69.10
2022-08-11T10:12:31.423Z,68.90
2022-08-11T10:14:57.869Z,68.70
2022-08-11T10:17:24.795Z,68.70
2022-08-11T10:20:05.289Z,68.70
2022-08-11T10:22:32.995Z,68.50
2022-08-11T10:24:59.623Z,68.60
2022-08-11T10:27:40.349Z,68.60
2022-08-11T10:30:12.602Z,68.50
2022-08-11T10:32:49.383Z,68.50
2022-08-11T10:35:25.571Z,68.50
2022-08-11T10:38:08.358Z,68.50
2022-08-11T10:40:36.057Z,68.40
2022-08-11T10:43:02.727Z,68.40
2022-08-11T10:45:29.369Z,68.50
2022-08-11T10:47:55.833Z,69.00
2022-08-11T10:50:22.312Z,68.80
2022-08-11T10:52:48.767Z,69.00
2022-08-11T10:55:15.249Z,68.80
2022-08-11T10:57:41.813Z,68.60
2022-08-11T11:00:08.395Z,69.40
2022-08-11T11:02:34.844Z,68.50
2022-08-11T11:05:01.469Z,68.50
2022-08-11T11:07:27.925Z,68.80
2022-08-11T11:09:54.368Z,68.40
2022-08-11T11:12:20.806Z,68.50
2022-08-11T11:14:49.815Z,68.40
2022-08-11T11:17:19.128Z,68.30
2022-08-11T11:19:45.575Z,68.30
2022-08-11T11:22:12.033Z,68.40
2022-08-11T11:24:38.484Z,68.40
2022-08-11T11:27:04.930Z,68.50
2022-08-11T11:29:31.369Z,68.30
2022-08-11T11:31:57.824Z,68.70
2022-08-11T11:34:24.274Z,68.40
2022-08-11T11:36:50.734Z,68.30
2022-08-11T11:39:17.201Z,68.30
2022-08-11T11:41:43.697Z,68.90
2022-08-11T11:44:10.164Z,68.50
2022-08-11T11:46:38.840Z,68.50
2022-08-11T11:49:05.750Z,68.30
2022-08-11T11:51:42.364Z,68.00
2022-08-11T11:54:12.068Z,68.90
2022-08-11T11:56:38.519Z,67.70
2022-08-11T11:59:04.996Z,68.50
2022-08-11T12:01:31.461Z,68.90
2022-08-11T12:03:57.927Z,68.20
2022-08-11T12:06:24.382Z,70.30
2022-08-11T12:08:50.840Z,68.70
2022-08-11T12:11:17.295Z,68.00
2022-08-11T12:13:43.771Z,68.10
2022-08-11T12:16:33.793Z,68.20
2022-08-11T12:18:56.744Z,68.30
2022-08-11T12:21:23.255Z,68.20
2022-08-11T12:23:49.751Z,68.60
2022-08-11T12:26:26.901Z,68.50
2022-08-11T12:28:53.851Z,68.40
2022-08-11T12:31:20.291Z,68.20
2022-08-11T12:33:46.826Z,68.30
2022-08-11T12:36:13.263Z,68.90
2022-08-11T12:38:39.707Z,68.60
2022-08-11T12:41:21.670Z,69.30
2022-08-11T12:43:56.832Z,68.60
2022-08-11T12:46:23.903Z,68.70
2022-08-11T12:49:00.936Z,68.10
2022-08-11T12:51:28.705Z,68.00
2022-08-11T12:53:55.241Z,68.00
2022-08-11T12:56:21.735Z,68.60
2022-08-11T12:58:48.230Z,68.00
2022-08-11T13:01:16.376Z,68.50
2022-08-11T13:03:42.985Z,67.70
2022-08-11T13:06:09.468Z,69.90
2022-08-11T13:08:35.940Z,68.10
2022-08-11T13:11:02.409Z,68.10
2022-08-11T13:13:52.439Z,67.90
2022-08-11T13:16:15.302Z,67.80
2022-08-11T13:18:41.738Z,68.00
2022-08-11T13:21:08.185Z,68.00
2022-08-11T13:23:34.625Z,68.20
2022-08-11T13:26:01.122Z,67.90
2022-08-11T13:28:27.570Z,68.10
2022-08-11T13:30:54.046Z,68.30
2022-08-11T13:33:20.488Z,68.20
2022-08-11T13:35:46.968Z,68.30
2022-08-11T13:38:19.007Z,68.20
2022-08-11T13:40:55.714Z,67.80
2022-08-11T13:43:22.733Z,67.80
2022-08-11T13:45:49.183Z,67.80
2022-08-11T13:48:15.622Z,67.80
2022-08-11T13:50:42.054Z,68.00
2022-08-11T13:53:08.494Z,67.80
2022-08-11T13:55:51.743Z,67.90
2022-08-11T13:58:40.382Z,67.60
2022-08-11T14:02:03.620Z,67.70
2022-08-11T14:04:30.552Z,67.50
2022-08-11T14:06:38.305Z,67.50
2022-08-11T14:09:04.752Z,67.50
2022-08-11T14:12:21.391Z,67.50
2022-08-11T14:14:17.622Z,67.70
2022-08-11T14:16:44.085Z,67.40
2022-08-11T14:19:10.518Z,67.40
2022-08-11T14:21:36.969Z,67.40
2022-08-11T14:24:03.426Z,67.30
2022-08-11T14:26:29.905Z,67.40
2022-08-11T14:28:56.355Z,68.60
2022-08-11T14:31:22.868Z,67.00
2022-08-11T14:33:58.294Z,67.80
2022-08-11T14:36:25.724Z,67.50
2022-08-11T14:38:52.156Z,67.50
2022-08-11T14:41:18.631Z,67.50
2022-08-11T14:44:12.748Z,67.60
2022-08-11T14:48:58.861Z,67.30
2022-08-11T14:51:25.311Z,67.30
2022-08-11T14:53:58.524Z,67.40
2022-08-11T14:56:25.489Z,67.60
2022-08-11T14:58:51.939Z,67.30
2022-08-11T15:01:18.435Z,67.50
2022-08-11T15:04:33.959Z,67.60
2022-08-11T15:06:31.377Z,67.50
2022-08-11T15:08:57.797Z,67.60
2022-08-11T15:11:24.234Z,67.90
2022-08-11T15:13:50.683Z,67.80
2022-08-11T15:16:17.142Z,67.60
2022-08-11T15:18:43.586Z,67.70
2022-08-11T15:21:10.233Z,67.50
2022-08-11T15:23:36.666Z,67.30
2022-08-11T15:26:03.129Z,67.30
2022-08-11T15:28:32.112Z,67.40
2022-08-11T15:30:58.571Z,67.50
2022-08-11T15:33:25.012Z,67.40
2022-08-11T15:35:51.486Z,67.50
2022-08-11T15:38:17.965Z,68.00
2022-08-11T15:40:44.411Z,67.70
2022-08-11T15:43:12.911Z,67.60
2022-08-11T15:45:39.501Z,67.40
2022-08-11T15:48:08.073Z,67.30
2022-08-11T15:50:37.088Z,67.20
2022-08-11T15:53:03.536Z,67.30
2022-08-11T15:55:29.984Z,67.40
2022-08-11T15:57:56.466Z,67.10
2022-08-11T16:00:24.421Z,67.50
2022-08-11T16:02:51.097Z,67.40
2022-08-11T16:05:44.921Z,67.50
2022-08-11T16:08:03.950Z,67.50
2022-08-11T16:10:30.404Z,67.90
2022-08-11T16:13:00.376Z,67.50
2022-08-11T16:15:26.865Z,68.00
2022-08-11T16:17:53.314Z,68.20
2022-08-11T16:20:19.786Z,68.20
2022-08-11T16:23:01.451Z,67.80
2022-08-11T16:27:03.231Z,67.80
2022-08-11T16:28:15.160Z,67.90
2022-08-11T16:30:41.622Z,67.70
2022-08-11T16:33:49.176Z,68.20
2022-08-11T16:35:54.729Z,67.40
2022-08-11T16:38:21.162Z,67.80
2022-08-11T16:40:47.685Z,67.30
2022-08-11T16:43:14.119Z,67.60
2022-08-11T16:45:40.554Z,67.70
2022-08-11T16:48:33.114Z,67.30
2022-08-11T16:50:53.500Z,67.30
2022-08-11T16:53:19.934Z,67.50
2022-08-11T16:55:52.754Z,67.30
2022-08-11T16:58:19.542Z,67.20
2022-08-11T17:00:46.197Z,67.30
2022-08-11T17:03:12.723Z,67.70
2022-08-11T17:05:53.861Z,67.40
2022-08-11T17:08:22.774Z,67.40
2022-08-11T17:10:54.818Z,67.30
2022-08-11T17:13:24.176Z,67.50
2022-08-11T17:15:51.036Z,67.30
2022-08-11T17:18:18.633Z,67.80
2022-08-11T17:20:45.244Z,67.90
2022-08-11T17:23:13.152Z,68.30
2022-08-11T17:25:58.709Z,69.00
2022-08-11T17:28:26.404Z,67.90
2022-08-11T17:30:52.875Z,67.60
2022-08-11T17:33:19.353Z,67.90
2022-08-11T17:35:45.850Z,67.60
2022-08-11T17:38:12.328Z,68.70
2022-08-11T17:40:38.814Z,68.90
2022-08-11T17:43:05.337Z,67.80
2022-08-11T17:45:31.792Z,67.80
2022-08-11T17:47:58.264Z,68.00
2022-08-11T17:50:24.715Z,67.80
2022-08-11T17:52:51.157Z,68.20
2022-08-11T17:55:17.608Z,67.90
2022-08-11T17:58:04.038Z,68.00
2022-08-11T18:00:30.464Z,67.80
2022-08-11T18:02:56.948Z,68.90
2022-08-11T18:05:23.383Z,68.00
2022-08-11T18:07:49.862Z,68.00
2022-08-11T18:10:16.292Z,68.20
2022-08-11T18:12:42.814Z,68.10
2022-08-11T18:15:09.241Z,68.20
2022-08-11T18:17:36.924Z,68.30
2022-08-11T18:20:03.354Z,68.30
2022-08-11T18:22:29.810Z,68.10
2022-08-11T18:24:56.248Z,68.00
2022-08-11T18:27:22.813Z,68.00
2022-08-11T18:29:49.252Z,68.20
2022-08-11T18:32:22.096Z,69.00
2022-08-11T18:34:51.423Z,68.20
2022-08-11T18:37:21.855Z,68.30
2022-08-11T18:39:54.688Z,68.30
2022-08-11T18:42:29.809Z,68.40
2022-08-11T18:44:56.476Z,68.50
2022-08-11T18:47:25.155Z,68.40
2022-08-11T18:50:04.077Z,68.60
2022-08-11T18:52:31.983Z,69.20
2022-08-11T18:54:58.441Z,68.50
2022-08-11T18:57:24.887Z,68.50
2022-08-11T18:59:51.324Z,68.70
2022-08-11T19:02:17.779Z,68.50
2022-08-11T19:04:44.276Z,68.50
2022-08-11T19:07:10.721Z,69.60
2022-08-11T19:09:37.137Z,68.60
2022-08-11T19:12:03.584Z,68.60
2022-08-11T19:14:30.014Z,68.60
2022-08-11T19:16:56.473Z,69.10
2022-08-11T19:19:22.942Z,68.70
2022-08-11T19:21:49.419Z,68.80
2022-08-11T19:24:15.901Z,69.80
2022-08-11T19:26:42.327Z,69.60
2022-08-11T19:29:08.795Z,69.60
2022-08-11T19:31:55.221Z,71.40
2022-08-11T19:34:21.684Z,69.40
2022-08-11T19:36:48.147Z,68.70
2022-08-11T19:39:14.635Z,68.90
2022-08-11T19:41:56.798Z,68.90
2022-08-11T19:44:24.292Z,68.80
2022-08-11T19:46:50.738Z,68.80
2022-08-11T19:49:17.171Z,68.80
2022-08-11T19:51:43.664Z,68.90
2022-08-11T19:54:10.208Z,70.10
2022-08-11T19:56:36.676Z,69.30
2022-08-11T19:59:03.518Z,69.40
2022-08-11T20:01:30.058Z,68.70
2022-08-11T20:03:56.561Z,69.20
2022-08-11T20:06:23.053Z,69.20
2022-08-11T20:08:49.515Z,69.30
2022-08-11T20:11:15.939Z,69.40
2022-08-11T20:13:42.711Z,69.90
2022-08-11T20:16:10.045Z,70.80
2022-08-11T20:18:36.609Z,69.30
2022-08-11T20:21:03.076Z,68.90
2022-08-11T20:23:49.537Z,68.30
2022-08-11T20:26:31.848Z,69.00
2022-08-11T20:28:58.479Z,69.50
2022-08-11T20:31:24.940Z,69.20
2022-08-11T20:33:51.390Z,69.00
2022-08-11T20:36:17.848Z,69.00
2022-08-11T20:38:44.316Z,69.10
2022-08-11T20:41:10.755Z,68.90
2022-08-11T20:44:06.087Z,69.10
2022-08-11T20:46:23.622Z,69.10
2022-08-11T20:48:50.866Z,69.10
2022-08-11T20:51:17.291Z,69.10
2022-08-11T20:53:43.754Z,69.00
2022-08-11T20:56:11.188Z,68.90
2022-08-11T21:01:38.782Z,69.10
2022-08-11T21:04:07.501Z,69.00
2022-08-11T21:06:36.153Z,69.00
2022-08-11T21:09:04.174Z,69.00
2022-08-11T21:11:30.612Z,69.10
2022-08-11T21:13:57.052Z,69.00
2022-08-11T21:16:26.614Z,69.00
2022-08-11T21:18:53.575Z,69.00
2022-08-11T21:21:20.008Z,69.10
2022-08-11T21:23:46.457Z,69.20
2022-08-11T21:26:12.916Z,69.00
2022-08-11T21:28:39.392Z,69.10
2022-08-11T21:31:05.828Z,69.10
2022-08-11T21:33:32.298Z,69.00
2022-08-11T21:35:58.721Z,69.00
2022-08-11T21:38:25.183Z,69.10
2022-08-11T21:40:51.722Z,69.00
2022-08-11T21:43:18.189Z,69.00
2022-08-11T21:45:44.634Z,69.00
2022-08-11T21:48:11.070Z,69.20
2022-08-11T21:50:37.516Z,69.70
2022-08-11T21:53:03.944Z,69.10
2022-08-11T21:55:30.386Z,69.00
2022-08-11T21:57:56.847Z,69.10
2022-08-11T22:00:23.267Z,68.90
2022-08-11T22:02:53.128Z,68.90
2022-08-11T22:05:20.247Z,69.10
2022-08-11T22:07:46.861Z,68.90
2022-08-11T22:10:41.415Z,69.00
2022-08-11T22:12:59.851Z,68.90
2022-08-11T22:15:26.327Z,68.90
2022-08-11T22:17:57.767Z,68.90
2022-08-11T22:20:24.531Z,69.00
2022-08-11T22:22:53.122Z,69.40
2022-08-11T22:25:20.712Z,69.10
2022-08-11T22:27:47.194Z,69.00
2022-08-11T22:30:13.642Z,68.90
2022-08-11T22:32:40.189Z,68.90
2022-08-11T22:35:06.867Z,68.90
2022-08-11T22:37:33.347Z,68.90
2022-08-11T22:40:02.388Z,69.00
2022-08-11T22:42:33.152Z,69.00
2022-08-11T22:45:00.271Z,69.00
2022-08-11T22:47:27.393Z,69.00
2022-08-11T22:50:04.963Z,69.00
2022-08-11T22:52:31.409Z,68.90
2022-08-11T22:54:57.901Z,69.40
2022-08-11T22:57:24.335Z,69.00
2022-08-11T22:59:50.795Z,69.00
2022-08-11T23:02:17.237Z,68.90
2022-08-11T23:04:43.711Z,69.50
2022-08-11T23:07:10.157Z,69.00
2022-08-11T23:09:36.602Z,69.10
2022-08-11T23:12:06.637Z,69.00
2022-08-11T23:14:34.561Z,69.10
2022-08-11T23:17:01.016Z,68.90
2022-08-11T23:20:06.636Z,68.90
2022-08-11T23:22:13.901Z,69.00
2022-08-11T23:24:40.465Z,68.90
2022-08-11T23:27:06.964Z,69.10
2022-08-11T23:29:33.446Z,69.00
2022-08-11T23:31:59.896Z,69.00
2022-08-11T23:34:41.794Z,69.00
2022-08-11T23:37:12.812Z,69.50
2022-08-11T23:39:39.283Z,69.00
2022-08-11T23:42:05.776Z,69.20
2022-08-11T23:44:32.216Z,69.10
2022-08-11T23:46:58.676Z,68.90
2022-08-11T23:49:25.146Z,69.00
2022-08-11T23:51:51.589Z,69.00
2022-08-11T23:54:18.050Z,69.00
2022-08-11T23:56:44.492Z,69.00
2022-08-11T23:59:10.999Z,69.10
